Time;durP1;ratioP1;P1;durP2;ratioP2;P2;SDS_P1;SDS_P2;PMS_P1;PMS_P2;Temp;Humidity;BMP_temperature;BMP_pressure;BME280_temperature;BME280_humidity;BME280_pressure;Samples;Min_cycle;Max_cycle;Signal;HPM_P1;HPM_P2
2022/02/13 00:01:38;;;;;;;16.58;9.32;;;3.70;74.60;;;;;;6211678;23;20055;-76
2022/02/13 00:04:04;;;;;;;14.70;8.80;;;3.70;74.80;;;;;;6187584;23;20021;-75
2022/02/13 00:06:29;;;;;;;15.85;8.60;;;3.70;74.80;;;;;;6212273;23;20020;-83
2022/02/13 00:08:55;;;;;;;19.05;9.13;;;3.60;74.80;;;;;;6186812;23;20340;-77
2022/02/13 00:11:21;;;;;;;16.50;9.02;;;3.60;74.90;;;;;;6212704;23;20436;-77
2022/02/13 00:13:47;;;;;;;18.77;9.38;;;3.60;75.00;;;;;;6186973;23;20024;-76
2022/02/13 00:16:13;;;;;;;16.63;9.63;;;3.60;75.00;;;;;;6182675;23;20060;-76
2022/02/13 00:18:39;;;;;;;15.50;9.32;;;3.60;75.10;;;;;;6182012;23;20025;-77
2022/02/13 00:21:04;;;;;;;19.90;9.65;;;3.60;75.10;;;;;;6182803;23;20046;-77
2022/02/13 00:23:30;;;;;;;20.23;9.65;;;3.50;75.10;;;;;;6207772;23;20025;-77
2022/02/13 00:25:56;;;;;;;18.20;9.27;;;3.50;75.10;;;;;;6181743;23;20013;-77
2022/02/13 00:28:21;;;;;;;16.27;9.02;;;3.50;75.20;;;;;;6207523;23;20017;-76
2022/02/13 00:30:47;;;;;;;17.40;9.88;;;3.50;75.20;;;;;;6206872;23;20017;-76
2022/02/13 00:33:16;;;;;;;16.13;9.32;;;3.50;75.30;;;;;;6158241;23;20021;-77
2022/02/13 00:35:42;;;;;;;19.20;10.07;;;3.50;75.40;;;;;;6157081;23;20021;-77
2022/02/13 00:38:09;;;;;;;18.08;10.20;;;3.50;75.40;;;;;;6158250;23;20466;-77
2022/02/13 00:40:35;;;;;;;20.42;9.82;;;3.40;75.40;;;;;;6158003;23;20017;-77
2022/02/13 00:43:01;;;;;;;16.60;10.02;;;3.50;75.60;;;;;;6157958;23;20063;-78
2022/02/13 00:45:26;;;;;;;20.50;10.00;;;3.40;75.60;;;;;;6157555;23;20053;-77
2022/02/13 00:47:52;;;;;;;16.00;10.23;;;3.40;75.70;;;;;;6157038;23;20009;-77
2022/02/13 00:50:18;;;;;;;18.10;10.73;;;3.40;75.70;;;;;;6182959;23;20017;-77
2022/02/13 00:52:44;;;;;;;19.13;10.30;;;3.40;75.80;;;;;;6183777;23;20120;-77
2022/02/13 00:55:09;;;;;;;18.05;9.98;;;3.40;75.80;;;;;;6183436;23;20024;-77
2022/02/13 00:57:35;;;;;;;17.90;9.55;;;3.40;75.80;;;;;;6184494;23;20013;-77
2022/02/13 01:00:01;;;;;;;17.40;9.43;;;3.40;75.90;;;;;;6208654;23;20021;-78
2022/02/13 01:02:27;;;;;;;18.95;10.45;;;3.30;76.00;;;;;;6183656;23;20122;-77
2022/02/13 01:04:52;;;;;;;17.80;9.35;;;3.30;76.00;;;;;;6183823;23;20019;-77
2022/02/13 01:07:18;;;;;;;17.35;9.75;;;3.30;76.10;;;;;;6186099;23;20028;-77
2022/02/13 01:09:44;;;;;;;17.92;10.73;;;3.30;76.20;;;;;;6183929;23;20340;-77
2022/02/13 01:12:10;;;;;;;17.65;9.63;;;3.30;76.30;;;;;;6185817;23;20017;-77
2022/02/13 01:14:35;;;;;;;18.75;10.38;;;3.20;76.30;;;;;;6183976;23;20069;-77
2022/02/13 01:17:01;;;;;;;20.15;10.40;;;3.20;76.40;;;;;;6185367;23;20452;-77
2022/02/13 01:19:29;;;;;;;21.10;10.73;;;3.20;76.60;;;;;;6159776;23;20017;-77
2022/02/13 01:21:55;;;;;;;16.58;10.23;;;3.20;77.30;;;;;;6159396;23;20092;-77
2022/02/13 01:24:20;;;;;;;15.30;8.57;;;3.20;76.70;;;;;;6135314;23;20057;-77
2022/02/13 01:26:46;;;;;;;19.60;9.45;;;3.20;76.70;;;;;;6183464;23;20009;-77
2022/02/13 01:29:12;;;;;;;17.13;10.20;;;3.10;76.70;;;;;;6209161;23;20013;-77
2022/02/13 01:31:39;;;;;;;20.80;10.73;;;3.10;76.70;;;;;;6159558;23;20021;-77
2022/02/13 01:34:05;;;;;;;18.52;10.13;;;3.10;76.80;;;;;;6185397;23;20020;-77
2022/02/13 01:36:31;;;;;;;17.73;8.95;;;3.20;76.90;;;;;;6184192;23;20029;-77
2022/02/13 01:38:57;;;;;;;14.07;10.00;;;3.10;77.80;;;;;;6183567;23;20104;-77
2022/02/13 01:41:23;;;;;;;16.83;9.43;;;3.10;77.00;;;;;;6159524;23;20321;-77
2022/02/13 01:43:48;;;;;;;19.27;10.18;;;3.10;77.10;;;;;;6208477;23;20511;-78
2022/02/13 01:46:14;;;;;;;15.75;9.73;;;3.10;77.20;;;;;;6159239;23;20051;-77
2022/02/13 01:48:40;;;;;;;18.63;10.13;;;3.10;77.20;;;;;;6159230;23;20021;-77
2022/02/13 01:51:05;;;;;;;15.65;8.98;;;3.10;77.30;;;;;;6183743;23;20511;-77
2022/02/13 01:53:31;;;;;;;20.17;10.35;;;3.00;77.40;;;;;;6183456;23;20451;-77
2022/02/13 01:55:57;;;;;;;15.55;9.93;;;3.00;77.40;;;;;;6183572;23;20021;-77
2022/02/13 01:58:22;;;;;;;21.20;10.90;;;3.00;77.40;;;;;;6159154;23;20093;-77
2022/02/13 02:00:51;;;;;;;20.52;10.15;;;3.00;77.50;;;;;;6134323;23;20440;-78
2022/02/13 02:03:17;;;;;;;18.75;10.20;;;3.00;77.50;;;;;;6183960;23;20317;-77
2022/02/13 02:05:43;;;;;;;19.83;10.15;;;3.00;77.50;;;;;;6183746;23;20028;-77
2022/02/13 02:08:09;;;;;;;21.45;9.63;;;3.00;77.50;;;;;;6158735;23;20017;-77
2022/02/13 02:10:35;;;;;;;16.85;10.45;;;3.00;77.60;;;;;;6184110;23;20100;-77
2022/02/13 02:13:01;;;;;;;20.23;10.82;;;2.90;77.70;;;;;;6158696;23;20021;-78
2022/02/13 02:15:26;;;;;;;20.13;10.75;;;2.90;77.70;;;;;;6158944;23;20013;-77
2022/02/13 02:17:52;;;;;;;18.83;11.15;;;2.90;77.70;;;;;;6158370;23;20013;-78
2022/02/13 02:20:18;;;;;;;18.25;10.80;;;2.90;77.70;;;;;;6185201;23;20017;-77
2022/02/13 02:22:48;;;;;;;20.13;11.07;;;2.90;77.80;;;;;;6159187;23;20021;-77
2022/02/13 02:25:14;;;;;;;19.60;11.20;;;2.90;77.90;;;;;;6158650;23;20013;-77
2022/02/13 02:27:40;;;;;;;16.77;10.57;;;2.90;77.90;;;;;;6183822;23;20460;-77
2022/02/13 02:30:06;;;;;;;18.05;10.60;;;2.90;78.00;;;;;;6183310;23;20024;-77
2022/02/13 02:32:31;;;;;;;19.10;10.77;;;2.90;78.10;;;;;;6185072;23;20097;-77
2022/02/13 02:34:57;;;;;;;16.33;10.82;;;2.80;78.00;;;;;;6183238;23;20336;-78
2022/02/13 02:37:24;;;;;;;18.05;10.32;;;2.80;78.10;;;;;;6183704;23;20332;-77
2022/02/13 02:39:50;;;;;;;20.58;10.68;;;2.80;78.10;;;;;;6159180;23;20017;-77
2022/02/13 02:42:15;;;;;;;17.75;11.00;;;2.80;78.20;;;;;;6133835;23;20042;-77
2022/02/13 02:44:41;;;;;;;18.92;10.82;;;2.80;78.20;;;;;;6183527;23;20017;-77
2022/02/13 02:47:07;;;;;;;16.17;10.75;;;2.80;78.30;;;;;;6183234;23;20048;-77
2022/02/13 02:49:33;;;;;;;22.42;10.60;;;2.80;78.40;;;;;;6184870;23;20013;-77
2022/02/13 02:51:58;;;;;;;18.02;11.13;;;2.80;78.40;;;;;;6183191;23;20017;-77
2022/02/13 02:54:26;;;;;;;19.77;12.20;;;2.80;78.40;;;;;;6158761;23;20017;-77
2022/02/13 02:56:52;;;;;;;17.23;10.10;;;2.70;78.40;;;;;;6158982;23;20024;-77
2022/02/13 02:59:18;;;;;;;20.50;10.85;;;2.70;78.50;;;;;;6183129;23;20340;-79
2022/02/13 03:01:44;;;;;;;19.20;10.32;;;2.70;78.50;;;;;;6182866;23;20340;-77
2022/02/13 03:04:10;;;;;;;22.35;11.73;;;2.70;78.60;;;;;;6182998;23;20028;-77
2022/02/13 03:06:36;;;;;;;19.05;10.65;;;2.70;78.60;;;;;;6158678;23;20017;-77
2022/02/13 03:09:02;;;;;;;21.55;11.25;;;2.70;78.70;;;;;;6184442;23;20025;-77
2022/02/13 03:11:28;;;;;;;17.52;11.07;;;2.70;78.80;;;;;;6183584;23;20017;-77
2022/02/13 03:13:54;;;;;;;21.58;11.20;;;2.70;78.80;;;;;;6209213;23;20443;-77
2022/02/13 03:16:20;;;;;;;18.48;11.00;;;2.70;78.80;;;;;;6188226;23;20087;-77
2022/02/13 03:18:46;;;;;;;16.88;9.95;;;2.70;78.90;;;;;;6214634;23;20020;-77
2022/02/13 03:21:11;;;;;;;18.95;11.18;;;2.60;78.90;;;;;;6212964;23;20017;-77
2022/02/13 03:23:37;;;;;;;18.00;11.48;;;2.60;78.90;;;;;;6213408;23;20020;-77
2022/02/13 03:26:03;;;;;;;19.70;10.93;;;2.60;79.00;;;;;;6162779;23;20016;-77
2022/02/13 03:28:28;;;;;;;23.35;11.50;;;2.60;79.10;;;;;;6188332;23;20013;-78
2022/02/13 03:30:54;;;;;;;19.15;11.07;;;2.60;79.10;;;;;;6213356;23;20017;-76
2022/02/13 03:33:19;;;;;;;17.90;11.55;;;2.50;79.10;;;;;;6138470;23;20028;-77
2022/02/13 03:35:45;;;;;;;19.88;11.43;;;2.60;79.30;;;;;;6138493;23;20048;-77
2022/02/13 03:38:11;;;;;;;18.15;10.93;;;2.60;79.30;;;;;;6162795;23;20020;-77
2022/02/13 03:40:37;;;;;;;18.75;11.45;;;2.50;79.30;;;;;;6214829;23;20046;-78
2022/02/13 03:43:05;;;;;;;17.25;11.85;;;2.50;79.30;;;;;;6163560;23;20016;-77
2022/02/13 03:45:31;;;;;;;19.98;11.60;;;2.50;79.40;;;;;;6164485;23;20016;-77
2022/02/13 03:47:56;;;;;;;18.83;11.82;;;2.50;79.50;;;;;;6162624;23;20026;-77
2022/02/13 03:50:22;;;;;;;21.58;12.02;;;2.50;79.50;;;;;;6162763;23;20040;-77
2022/02/13 03:52:48;;;;;;;26.95;11.30;;;2.50;79.60;;;;;;6214651;23;20184;-77
2022/02/13 03:55:16;;;;;;;21.48;11.20;;;2.50;79.70;;;;;;6212752;23;20158;-77
2022/02/13 03:57:42;;;;;;;19.17;11.38;;;2.50;79.70;;;;;;6139625;23;20067;-77
2022/02/13 04:00:08;;;;;;;16.52;11.40;;;2.50;79.70;;;;;;6163184;23;20012;-78
2022/02/13 04:02:34;;;;;;;20.73;10.82;;;2.50;79.80;;;;;;6188093;23;20013;-77
2022/02/13 04:05:00;;;;;;;21.88;11.45;;;2.50;79.80;;;;;;6138801;23;20380;-77
2022/02/13 04:07:28;;;;;;;21.75;11.50;;;2.50;80.60;;;;;;6187374;23;20036;-77
2022/02/13 04:09:55;;;;;;;21.35;11.85;;;2.50;79.90;;;;;;6163222;23;20024;-77
2022/02/13 04:12:21;;;;;;;20.23;11.50;;;2.50;79.90;;;;;;6138657;23;20525;-77
2022/02/13 04:14:46;;;;;;;17.40;11.05;;;2.40;79.90;;;;;;6187757;23;20023;-78
2022/02/13 04:17:12;;;;;;;19.95;11.20;;;2.40;80.00;;;;;;6212523;23;20343;-77
2022/02/13 04:19:38;;;;;;;17.98;11.00;;;2.40;80.00;;;;;;6163365;23;20027;-77
2022/02/13 04:22:03;;;;;;;18.60;11.90;;;2.40;80.10;;;;;;6188173;23;20021;-77
2022/02/13 04:24:29;;;;;;;25.40;12.20;;;2.40;80.20;;;;;;6162669;23;20016;-77
2022/02/13 04:26:55;;;;;;;18.85;11.25;;;2.40;80.20;;;;;;6187902;23;20058;-77
2022/02/13 04:29:21;;;;;;;16.75;11.00;;;2.40;80.20;;;;;;6162758;23;20020;-77
2022/02/13 04:31:47;;;;;;;17.58;10.45;;;2.40;80.20;;;;;;6165411;23;20103;-77
2022/02/13 04:34:12;;;;;;;16.27;10.90;;;2.40;80.20;;;;;;6189373;23;20424;-77
2022/02/13 04:36:38;;;;;;;21.55;11.55;;;2.40;80.30;;;;;;6214784;23;20012;-77
2022/02/13 04:39:04;;;;;;;18.92;11.77;;;2.30;80.20;;;;;;6165341;23;20447;-77
2022/02/13 04:41:30;;;;;;;17.00;10.63;;;2.30;80.30;;;;;;6164792;23;20016;-77
2022/02/13 04:43:56;;;;;;;19.88;10.88;;;2.30;80.40;;;;;;6189825;23;20016;-78
2022/02/13 04:46:23;;;;;;;18.55;11.02;;;2.30;80.50;;;;;;6164622;23;20335;-77
2022/02/13 04:48:49;;;;;;;17.48;12.02;;;2.30;80.50;;;;;;6164338;23;20032;-77
2022/02/13 04:51:15;;;;;;;20.02;10.18;;;2.30;80.50;;;;;;6214194;23;20020;-77
2022/02/13 04:53:40;;;;;;;16.70;10.90;;;2.30;80.50;;;;;;6164943;23;20025;-77
2022/02/13 04:56:09;;;;;;;21.67;10.95;;;2.20;80.60;;;;;;6189784;23;20021;-77
2022/02/13 04:58:35;;;;;;;17.63;11.02;;;2.20;80.60;;;;;;6214356;23;20201;-77
2022/02/13 05:01:00;;;;;;;17.55;11.35;;;2.30;80.70;;;;;;6214582;23;20016;-77
2022/02/13 05:03:26;;;;;;;18.10;11.43;;;2.20;80.60;;;;;;6164305;23;20095;-77
2022/02/13 05:05:52;;;;;;;17.00;11.35;;;2.20;80.70;;;;;;6139940;23;20017;-77
2022/02/13 05:08:18;;;;;;;22.10;12.98;;;2.20;80.70;;;;;;6164391;23;20028;-77
2022/02/13 05:10:44;;;;;;;18.85;11.75;;;2.20;80.80;;;;;;6189455;23;20031;-77
2022/02/13 05:13:10;;;;;;;19.35;11.20;;;2.20;80.90;;;;;;6164713;23;20139;-77
2022/02/13 05:15:35;;;;;;;25.02;12.20;;;2.20;81.00;;;;;;6215519;23;20056;-77
2022/02/13 05:18:01;;;;;;;18.70;10.50;;;2.10;81.00;;;;;;6214722;23;20398;-77
2022/02/13 05:20:26;;;;;;;19.52;11.48;;;2.10;81.10;;;;;;6214071;23;20020;-77
2022/02/13 05:22:52;;;;;;;17.88;11.13;;;2.10;81.20;;;;;;6216007;23;20052;-77
2022/02/13 05:25:18;;;;;;;15.70;10.85;;;2.10;81.20;;;;;;6189408;23;20474;-77
2022/02/13 05:27:44;;;;;;;18.85;11.75;;;2.10;81.30;;;;;;6216070;23;20023;-77
2022/02/13 05:30:10;;;;;;;23.63;12.00;;;2.10;81.40;;;;;;6189295;23;20055;-77
2022/02/13 05:32:35;;;;;;;17.98;11.80;;;2.10;81.40;;;;;;6189042;23;20016;-77
2022/02/13 05:35:01;;;;;;;18.15;12.13;;;2.10;81.50;;;;;;6215903;23;20027;-77
2022/02/13 05:37:29;;;;;;;20.90;11.98;;;2.10;81.50;;;;;;6188897;23;20031;-77
2022/02/13 05:39:54;;;;;;;19.73;11.25;;;2.00;81.50;;;;;;6189558;23;20012;-77
2022/02/13 05:42:23;;;;;;;19.98;11.63;;;2.00;81.60;;;;;;6189392;23;20482;-77
2022/02/13 05:44:49;;;;;;;18.50;11.43;;;2.10;81.70;;;;;;6190257;23;20096;-77
2022/02/13 05:47:15;;;;;;;18.15;11.60;;;2.00;81.70;;;;;;6188959;23;20084;-77
2022/02/13 05:49:40;;;;;;;19.75;11.95;;;2.00;81.80;;;;;;6163556;23;20024;-78
2022/02/13 05:52:06;;;;;;;16.92;10.55;;;2.00;81.80;;;;;;6164400;23;20016;-77
2022/02/13 05:54:32;;;;;;;22.70;11.65;;;2.00;81.80;;;;;;6213696;23;20023;-77
2022/02/13 05:56:57;;;;;;;22.25;12.25;;;2.00;81.90;;;;;;6213882;23;20012;-78
2022/02/13 05:59:23;;;;;;;23.90;11.25;;;2.00;81.90;;;;;;6213967;23;20096;-78
2022/02/13 06:01:49;;;;;;;20.80;11.82;;;2.00;82.60;;;;;;6213542;23;20094;-77
2022/02/13 06:04:15;;;;;;;20.30;11.50;;;2.00;82.00;;;;;;6164382;23;20017;-77
2022/02/13 06:06:41;;;;;;;17.92;10.80;;;2.00;82.00;;;;;;6163443;23;20020;-77
2022/02/13 06:09:07;;;;;;;17.75;11.35;;;1.90;82.00;;;;;;6164262;23;20013;-77
2022/02/13 06:11:33;;;;;;;19.45;10.40;;;2.00;82.10;;;;;;6139314;23;20021;-77
2022/02/13 06:13:58;;;;;;;19.83;11.63;;;1.90;82.10;;;;;;6164180;23;20020;-77
2022/02/13 06:16:24;;;;;;;16.25;11.95;;;1.90;82.10;;;;;;6163847;23;20013;-77
2022/02/13 06:18:50;;;;;;;19.13;10.90;;;1.90;82.10;;;;;;6188419;23;20019;-77
2022/02/13 06:21:15;;;;;;;17.13;10.98;;;1.90;82.20;;;;;;6189100;23;20020;-77
2022/02/13 06:23:41;;;;;;;19.50;10.68;;;1.90;82.30;;;;;;6139090;23;20013;-77
2022/02/13 06:26:07;;;;;;;19.38;11.20;;;1.90;82.30;;;;;;6164071;23;20023;-77
2022/02/13 06:28:32;;;;;;;17.42;10.75;;;1.90;82.30;;;;;;6188407;23;20151;-78
2022/02/13 06:30:58;;;;;;;19.88;10.98;;;1.90;82.40;;;;;;6188735;23;20016;-77
2022/02/13 06:33:24;;;;;;;18.48;11.38;;;1.90;82.40;;;;;;6139354;23;20183;-77
2022/02/13 06:35:49;;;;;;;18.42;11.10;;;1.90;82.40;;;;;;6163427;23;20209;-77
2022/02/13 06:38:15;;;;;;;20.25;11.57;;;1.90;82.40;;;;;;6188974;23;20136;-77
2022/02/13 06:40:41;;;;;;;20.02;11.45;;;1.90;82.50;;;;;;6188230;23;20059;-77
2022/02/13 06:43:07;;;;;;;19.42;11.65;;;1.90;82.40;;;;;;6164110;23;20016;-77
2022/02/13 06:45:34;;;;;;;21.05;12.23;;;1.90;82.50;;;;;;6188363;23;20038;-78
2022/02/13 06:48:00;;;;;;;23.00;11.32;;;1.90;82.50;;;;;;6212885;23;20020;-77
2022/02/13 06:50:27;;;;;;;20.88;11.93;;;1.90;82.50;;;;;;6188474;23;20031;-77
2022/02/13 06:52:53;;;;;;;18.58;11.07;;;1.90;82.50;;;;;;6188201;23;20333;-77
2022/02/13 06:55:19;;;;;;;19.60;12.02;;;1.90;82.50;;;;;;6163483;23;20016;-77
2022/02/13 06:57:49;;;;;;;17.77;10.35;;;1.90;82.50;;;;;;6214626;23;20027;-77
2022/02/13 07:00:15;;;;;;;19.58;11.02;;;1.90;82.50;;;;;;6140012;23;20055;-77
2022/02/13 07:02:41;;;;;;;17.02;11.07;;;1.90;82.50;;;;;;6138881;23;20020;-77
2022/02/13 07:05:08;;;;;;;17.88;10.77;;;1.90;82.50;;;;;;6188594;23;20019;-77
2022/02/13 07:07:34;;;;;;;18.85;10.82;;;1.90;82.50;;;;;;6188513;23;20012;-77
2022/02/13 07:10:00;;;;;;;14.90;10.48;;;2.00;82.50;;;;;;6163062;23;20506;-77
2022/02/13 07:12:26;;;;;;;18.90;10.55;;;2.00;82.40;;;;;;6188459;23;20016;-77
2022/02/13 07:14:51;;;;;;;19.90;11.23;;;2.00;82.40;;;;;;6157781;23;20056;-77
2022/02/13 07:17:17;;;;;;;24.13;11.23;;;2.00;82.50;;;;;;6184859;23;20044;-77
2022/02/13 07:19:42;;;;;;;17.42;10.98;;;2.10;82.50;;;;;;6183103;23;20059;-77
2022/02/13 07:22:08;;;;;;;16.92;10.50;;;2.10;82.50;;;;;;6158498;23;20021;-77
2022/02/13 07:24:34;;;;;;;21.10;11.40;;;2.10;82.40;;;;;;6185139;23;20025;-77
2022/02/13 07:27:01;;;;;;;21.27;11.25;;;2.10;82.40;;;;;;6133727;23;20096;-77
2022/02/13 07:29:27;;;;;;;19.83;10.70;;;2.20;82.40;;;;;;6133971;23;20013;-77
2022/02/13 07:31:52;;;;;;;18.33;10.43;;;2.20;82.30;;;;;;6158049;23;20017;-77
2022/02/13 07:34:18;;;;;;;15.77;10.77;;;2.20;82.30;;;;;;6183115;23;20317;-77
2022/02/13 07:36:43;;;;;;;16.67;10.25;;;2.20;82.20;;;;;;6133466;23;20499;-77
2022/02/13 07:39:09;;;;;;;15.07;10.50;;;2.30;82.10;;;;;;6207510;23;20017;-79
2022/02/13 07:41:35;;;;;;;15.38;10.05;;;2.30;82.10;;;;;;6182166;23;20317;-79
2022/02/13 07:44:01;;;;;;;16.02;10.50;;;2.30;82.00;;;;;;6157389;23;20517;-78
2022/02/13 07:46:27;;;;;;;18.65;10.00;;;2.40;82.00;;;;;;6183410;23;20083;-78
2022/02/13 07:48:52;;;;;;;18.13;10.15;;;2.40;81.90;;;;;;6182133;23;20045;-77
2022/02/13 07:51:18;;;;;;;16.83;9.68;;;2.50;81.80;;;;;;6181099;23;20100;-81
2022/02/13 07:53:47;;;;;;;17.75;10.23;;;2.50;81.80;;;;;;6181032;23;20060;-78
2022/02/13 07:56:14;;;;;;;18.33;12.07;;;2.50;81.70;;;;;;6158626;23;20021;-77
2022/02/13 07:58:40;;;;;;;20.10;10.25;;;2.60;81.70;;;;;;6158397;23;20218;-77
2022/02/13 08:01:06;;;;;;;17.05;10.07;;;2.60;81.80;;;;;;6131921;23;20071;-77
2022/02/13 08:03:35;;;;;;;16.17;10.15;;;2.70;81.70;;;;;;6158011;23;20017;-77
2022/02/13 08:06:02;;;;;;;15.68;10.07;;;2.70;81.60;;;;;;6159551;23;20029;-77
2022/02/13 08:08:28;;;;;;;16.38;10.75;;;2.70;81.50;;;;;;6134311;23;20032;-78
2022/02/13 08:10:53;;;;;;;15.38;10.32;;;2.80;81.50;;;;;;6135203;23;20100;-77
2022/02/13 08:13:19;;;;;;;14.45;9.68;;;2.90;81.90;;;;;;6185686;23;20083;-78
2022/02/13 08:15:45;;;;;;;17.20;10.48;;;3.00;81.80;;;;;;6209580;23;20021;-81
2022/02/13 08:18:12;;;;;;;14.60;10.30;;;3.00;81.50;;;;;;6159217;23;20025;-82
2022/02/13 08:20:40;;;;;;;13.30;10.27;;;3.10;81.30;;;;;;6159856;23;20034;-75
2022/02/13 08:23:07;;;;;;;14.75;10.38;;;3.20;81.20;;;;;;6206803;23;20017;-76
2022/02/13 08:25:33;;;;;;;14.30;9.63;;;3.20;80.90;;;;;;6159348;23;20092;-74
2022/02/13 08:27:58;;;;;;;17.70;9.95;;;3.20;80.70;;;;;;6182969;23;20387;-75
2022/02/13 08:30:24;;;;;;;16.92;11.30;;;3.30;80.70;;;;;;6184923;23;20017;-75
2022/02/13 08:32:50;;;;;;;16.08;10.25;;;3.30;80.60;;;;;;6159295;23;20384;-76
2022/02/13 08:35:16;;;;;;;17.08;9.48;;;3.40;80.50;;;;;;6184506;23;20032;-75
2022/02/13 08:37:41;;;;;;;20.80;10.80;;;3.50;80.50;;;;;;6209047;23;20056;-75
2022/02/13 08:40:08;;;;;;;16.10;9.90;;;3.50;80.30;;;;;;6183828;23;20072;-76
2022/02/13 08:42:33;;;;;;;14.75;9.35;;;3.50;80.10;;;;;;6183394;23;20021;-75
2022/02/13 08:44:59;;;;;;;16.80;10.45;;;3.60;80.10;;;;;;6182520;23;20071;-75
2022/02/13 08:47:25;;;;;;;14.18;9.98;;;3.60;80.10;;;;;;6157068;23;20339;-74
2022/02/13 08:49:50;;;;;;;15.98;10.77;;;3.70;80.10;;;;;;6207994;23;20024;-75
2022/02/13 08:52:19;;;;;;;15.48;10.23;;;3.70;79.90;;;;;;6182687;23;20060;-74
2022/02/13 08:54:45;;;;;;;20.27;10.45;;;3.80;79.80;;;;;;6208877;23;20404;-75
2022/02/13 08:57:11;;;;;;;15.57;10.32;;;3.90;79.70;;;;;;6183129;23;20032;-75
2022/02/13 08:59:36;;;;;;;19.25;10.02;;;3.90;79.60;;;;;;6184015;23;20017;-78
2022/02/13 09:02:02;;;;;;;18.60;10.50;;;4.00;79.40;;;;;;6185348;23;20091;-75
2022/02/13 09:04:30;;;;;;;17.42;9.98;;;4.00;79.20;;;;;;6160047;23;20061;-74
2022/02/13 09:06:55;;;;;;;16.35;9.35;;;4.10;79.20;;;;;;6158727;23;20048;-75
2022/02/13 09:09:23;;;;;;;15.00;9.80;;;4.20;79.10;;;;;;6207488;23;20072;-76
2022/02/13 09:11:51;;;;;;;17.77;11.07;;;4.20;79.00;;;;;;6134818;23;20025;-75
2022/02/13 09:14:16;;;;;;;17.25;10.52;;;4.30;78.90;;;;;;6187878;23;20344;-72
2022/02/13 09:16:42;;;;;;;16.67;10.45;;;4.40;78.80;;;;;;6213850;23;20021;-77
2022/02/13 09:19:08;;;;;;;15.52;10.15;;;4.50;78.60;;;;;;6164291;23;20365;-75
2022/02/13 09:21:34;;;;;;;15.23;9.70;;;4.50;78.40;;;;;;6215506;23;20013;-75
2022/02/13 09:24:00;;;;;;;20.02;10.90;;;4.60;78.30;;;;;;6214063;23;20055;-74
2022/02/13 09:26:26;;;;;;;16.00;9.70;;;4.70;78.10;;;;;;6188444;23;20381;-73
2022/02/13 09:28:51;;;;;;;13.27;9.50;;;4.80;78.00;;;;;;6215531;23;20087;-75
2022/02/13 09:31:17;;;;;;;17.90;10.05;;;4.80;77.80;;;;;;6213437;23;20016;-72
2022/02/13 09:33:44;;;;;;;15.93;10.07;;;4.90;77.70;;;;;;6189175;23;20017;-73
2022/02/13 09:36:09;;;;;;;18.05;10.18;;;5.00;77.60;;;;;;6188277;23;20091;-74
2022/02/13 09:38:35;;;;;;;16.10;10.85;;;5.10;77.50;;;;;;6188909;23;20056;-73
2022/02/13 09:41:01;;;;;;;14.68;10.68;;;5.10;77.20;;;;;;6163556;23;20316;-78
2022/02/13 09:43:27;;;;;;;14.85;10.02;;;5.20;77.10;;;;;;6164556;23;20091;-75
2022/02/13 09:45:53;;;;;;;16.40;10.50;;;5.30;77.00;;;;;;6213844;23;20284;-75
2022/02/13 09:48:23;;;;;;;14.85;9.75;;;5.30;76.80;;;;;;6212719;23;20012;-72
2022/02/13 09:50:48;;;;;;;16.48;10.65;;;5.40;76.70;;;;;;6213678;23;20042;-75
2022/02/13 09:53:17;;;;;;;17.52;9.98;;;5.40;76.50;;;;;;6187726;23;20020;-83
2022/02/13 09:55:43;;;;;;;16.13;10.27;;;5.50;76.40;;;;;;6163543;23;20052;-76
2022/02/13 09:58:09;;;;;;;17.80;10.07;;;5.50;76.30;;;;;;6214249;23;20482;-75
2022/02/13 10:00:51;;;;;;;14.90;9.73;;;5.60;76.30;;;;;;6139751;23;20017;-76
2022/02/13 10:03:18;;;;;;;13.80;10.23;;;5.70;76.10;;;;;;6187220;23;20086;-75
2022/02/13 10:05:44;;;;;;;15.98;10.55;;;5.70;76.00;;;;;;6188746;23;20012;-77
2022/02/13 10:08:09;;;;;;;17.52;10.32;;;5.80;75.70;;;;;;6163276;23;20470;-78
2022/02/13 10:10:35;;;;;;;13.65;9.63;;;5.90;76.30;;;;;;6163736;23;20035;-75
2022/02/13 10:13:01;;;;;;;13.02;9.38;;;6.00;75.50;;;;;;6214026;23;20028;-77
2022/02/13 10:15:31;;;;;;;15.70;9.68;;;6.00;75.30;;;;;;6213955;23;20327;-89
2022/02/13 10:18:00;;;;;;;15.00;9.65;;;6.10;75.00;;;;;;6164570;23;20017;-79
2022/02/13 10:20:27;;;;;;;14.27;9.70;;;6.20;74.90;;;;;;6186528;23;20070;-77
2022/02/13 10:22:53;;;;;;;13.60;9.52;;;6.20;74.70;;;;;;6213385;23;20048;-75
2022/02/13 10:25:19;;;;;;;13.82;9.23;;;6.30;74.70;;;;;;6214186;23;20502;-76
2022/02/13 10:27:46;;;;;;;13.43;9.43;;;6.30;74.50;;;;;;6138076;23;20119;-75
2022/02/13 10:30:11;;;;;;;15.07;9.90;;;6.40;74.30;;;;;;6186900;23;20020;-75
2022/02/13 10:32:41;;;;;;;12.73;9.80;;;6.50;74.10;;;;;;6212896;23;20023;-79
2022/02/13 10:35:12;;;;;;;16.35;10.10;;;6.50;74.00;;;;;;6215130;23;20071;-76
2022/02/13 10:37:40;;;;;;;14.30;10.00;;;6.60;73.90;;;;;;6214664;23;20100;-75
2022/02/13 10:40:08;;;;;;;14.55;10.50;;;6.70;73.70;;;;;;6163276;23;20142;-83
2022/02/13 10:42:33;;;;;;;16.48;11.07;;;6.80;73.70;;;;;;6138307;23;20130;-80
2022/02/13 10:45:25;;;;;;;13.07;9.07;;;6.90;73.40;;;;;;6138736;23;20039;-77
2022/02/13 10:47:53;;;;;;;13.40;10.23;;;6.90;73.30;;;;;;6187273;23;20016;-77
2022/02/13 10:50:19;;;;;;;15.15;10.40;;;7.00;73.20;;;;;;6163464;23;20375;-77
2022/02/13 10:52:50;;;;;;;15.77;10.57;;;7.10;73.00;;;;;;6162845;23;20055;-75
2022/02/13 10:55:16;;;;;;;15.52;10.52;;;7.20;72.70;;;;;;6138087;23;20339;-73
2022/02/13 10:57:42;;;;;;;13.98;10.05;;;7.30;72.60;;;;;;6136789;23;20024;-73
2022/02/13 11:00:16;;;;;;;16.02;10.75;;;7.40;72.40;;;;;;5112446;27;20445;-78
2022/02/13 11:02:44;;;;;;;17.75;10.95;;;7.50;72.30;;;;;;5122947;27;20392;-74
2022/02/13 11:05:10;;;;;;;15.75;10.45;;;7.60;72.10;;;;;;5074944;28;20132;-75
2022/02/13 11:07:41;;;;;;;14.45;10.77;;;7.70;72.10;;;;;;5106150;28;20613;-76
2022/02/13 11:10:14;;;;;;;14.60;9.32;;;7.80;71.80;;;;;;5107320;28;20108;-78
2022/02/13 11:12:42;;;;;;;16.05;10.65;;;8.00;71.50;;;;;;5074938;28;20086;-74
2022/02/13 11:15:15;;;;;;;14.65;10.35;;;8.10;71.20;;;;;;5074276;28;20380;-82
2022/02/13 11:17:42;;;;;;;14.93;10.00;;;8.30;70.70;;;;;;5077349;28;20054;-74
2022/02/13 11:20:14;;;;;;;13.25;9.63;;;8.40;70.50;;;;;;5093930;28;20050;-74
2022/02/13 11:22:41;;;;;;;14.80;10.10;;;8.60;70.20;;;;;;5089522;28;20395;-81
2022/02/13 11:25:08;;;;;;;14.10;10.13;;;8.80;70.00;;;;;;5064697;28;20496;-79
2022/02/13 11:28:00;;;;;;;15.20;10.95;;;8.90;69.80;;;;;;5072787;28;20036;-79
2022/02/13 11:30:49;;;;;;;13.73;9.95;;;9.20;70.00;;;;;;5080318;28;20048;-75
2022/02/13 11:33:21;;;;;;;17.50;9.95;;;9.60;68.80;;;;;;5083441;28;20070;-74
2022/02/13 11:35:54;;;;;;;16.40;10.50;;;10.10;67.60;;;;;;5099471;28;20054;-76
2022/02/13 11:38:39;;;;;;;13.60;10.02;;;10.80;66.10;;;;;;5093440;28;20052;-81
2022/02/13 11:41:05;;;;;;;13.50;9.27;;;11.60;63.80;;;;;;5116372;28;20055;-75
2022/02/13 11:43:49;;;;;;;12.77;9.27;;;12.20;61.40;;;;;;5111071;28;20077;-76
2022/02/13 11:46:40;;;;;;;15.68;9.32;;;12.70;60.30;;;;;;5095233;28;20404;-75
2022/02/13 11:49:09;;;;;;;13.73;9.48;;;13.20;59.00;;;;;;5091091;28;20089;-75
2022/02/13 11:51:49;;;;;;;12.88;9.77;;;13.50;57.90;;;;;;5084771;28;20036;-76
2022/02/13 11:54:37;;;;;;;12.02;9.65;;;13.90;57.50;;;;;;5110484;28;20101;-76
2022/02/13 11:57:07;;;;;;;10.73;8.77;;;14.20;55.90;;;;;;5105812;28;20044;-80
2022/02/13 11:59:51;;;;;;;13.40;9.35;;;14.50;55.80;;;;;;5082608;28;20048;-78
2022/02/13 12:02:36;;;;;;;13.23;10.23;;;15.00;55.00;;;;;;5105158;28;20044;-77
2022/02/13 12:05:11;;;;;;;12.73;9.52;;;15.40;53.90;;;;;;5081956;28;20051;-75
2022/02/13 12:07:45;;;;;;;12.25;9.82;;;15.90;53.20;;;;;;5108133;28;20057;-76
2022/02/13 12:10:12;;;;;;;12.77;8.80;;;16.30;52.10;;;;;;5104274;28;20424;-74
2022/02/13 12:12:40;;;;;;;11.80;9.80;;;16.70;51.10;;;;;;5076763;28;20040;-74
2022/02/13 12:15:06;;;;;;;35.15;25.98;;;17.10;49.80;;;;;;5073192;28;20067;-76
2022/02/13 12:17:32;;;;;;;19.90;13.73;;;17.40;49.00;;;;;;5071865;28;20051;-81
2022/02/13 12:20:05;;;;;;;14.32;10.30;;;17.80;48.20;;;;;;5067833;28;20044;-76
2022/02/13 12:22:33;;;;;;;10.88;9.43;;;18.20;47.00;;;;;;5074749;28;20052;-78
2022/02/13 12:25:00;;;;;;;10.48;8.65;;;18.50;46.70;;;;;;5043159;28;20050;-75
2022/02/13 12:27:26;;;;;;;12.40;9.57;;;18.70;46.00;;;;;;5091164;28;20106;-81
2022/02/13 12:29:54;;;;;;;9.85;8.40;;;18.80;45.30;;;;;;5040473;28;20499;-79
2022/02/13 12:32:26;;;;;;;9.75;8.55;;;18.80;44.90;;;;;;5064227;28;20052;-78
2022/02/13 12:35:08;;;;;;;10.90;8.70;;;18.80;44.20;;;;;;5058176;28;20194;-77
2022/02/13 12:37:47;;;;;;;11.45;8.43;;;18.80;43.90;;;;;;5079072;28;20055;-78